sensor_id;sensor_type;location;lat;lon;timestamp;P1;durP1;ratioP1;P2;durP2;ratioP2
63398;SDS011;49533;-34.520;150.798;2023-12-14T00:01:14;2.70;;;1.75;;
63398;SDS011;49533;-34.520;150.798;2023-12-14T00:03:42;2.85;;;1.38;;
63398;SDS011;49533;-34.520;150.798;2023-12-14T00:06:12;4.70;;;1.73;;
63398;SDS011;49533;-34.520;150.798;2023-12-14T00:08:40;2.70;;;1.40;;
63398;SDS011;49533;-34.520;150.798;2023-12-14T00:11:08;3.30;;;1.80;;
63398;SDS011;49533;-34.520;150.798;2023-12-14T00:13:36;1.98;;;1.27;;
63398;SDS011;49533;-34.520;150.798;2023-12-14T00:16:04;4.80;;;1.65;;
63398;SDS011;49533;-34.520;150.798;2023-12-14T00:18:32;2.60;;;1.20;;
63398;SDS011;49533;-34.520;150.798;2023-12-14T00:21:00;4.88;;;1.60;;
63398;SDS011;49533;-34.520;150.798;2023-12-14T00:23:27;2.33;;;1.40;;
63398;SDS011;49533;-34.520;150.798;2023-12-14T00:25:54;1.77;;;1.15;;
63398;SDS011;49533;-34.520;150.798;2023-12-14T00:28:21;4.95;;;1.60;;
63398;SDS011;49533;-34.520;150.798;2023-12-14T00:30:49;1.60;;;1.17;;
63398;SDS011;49533;-34.520;150.798;2023-12-14T00:33:16;4.32;;;1.35;;
63398;SDS011;49533;-34.520;150.798;2023-12-14T00:35:43;3.00;;;1.58;;
63398;SDS011;49533;-34.520;150.798;2023-12-14T00:38:10;1.83;;;1.27;;
63398;SDS011;49533;-34.520;150.798;2023-12-14T00:40:37;1.85;;;1.20;;
63398;SDS011;49533;-34.520;150.798;2023-12-14T00:43:07;1.90;;;1.50;;
63398;SDS011;49533;-34.520;150.798;2023-12-14T00:45:35;2.88;;;1.77;;
63398;SDS011;49533;-34.520;150.798;2023-12-14T00:48:02;1.70;;;1.25;;
63398;SDS011;49533;-34.520;150.798;2023-12-14T00:50:29;2.28;;;1.63;;
63398;SDS011;49533;-34.520;150.798;2023-12-14T00:52:56;4.93;;;1.67;;
63398;SDS011;49533;-34.520;150.798;2023-12-14T00:55:24;2.65;;;1.52;;
63398;SDS011;49533;-34.520;150.798;2023-12-14T00:57:51;2.55;;;1.60;;
63398;SDS011;49533;-34.520;150.798;2023-12-14T01:00:18;2.13;;;1.38;;
63398;SDS011;49533;-34.520;150.798;2023-12-14T01:02:46;2.20;;;1.08;;
63398;SDS011;49533;-34.520;150.798;2023-12-14T01:05:13;4.20;;;1.55;;
63398;SDS011;49533;-34.520;150.798;2023-12-14T01:07:40;2.80;;;0.98;;
63398;SDS011;49533;-34.520;150.798;2023-12-14T01:10:07;3.75;;;1.38;;
63398;SDS011;49533;-34.520;150.798;2023-12-14T01:12:35;1.40;;;1.30;;
63398;SDS011;49533;-34.520;150.798;2023-12-14T01:15:03;2.67;;;1.42;;
63398;SDS011;49533;-34.520;150.798;2023-12-14T01:17:30;1.83;;;1.35;;
63398;SDS011;49533;-34.520;150.798;2023-12-14T01:20:02;2.28;;;1.40;;
63398;SDS011;49533;-34.520;150.798;2023-12-14T01:22:32;2.60;;;1.52;;
63398;SDS011;49533;-34.520;150.798;2023-12-14T01:25:00;2.30;;;1.58;;
63398;SDS011;49533;-34.520;150.798;2023-12-14T01:27:27;1.63;;;1.30;;
63398;SDS011;49533;-34.520;150.798;2023-12-14T01:29:54;3.83;;;1.20;;
63398;SDS011;49533;-34.520;150.798;2023-12-14T01:32:21;2.88;;;1.48;;
63398;SDS011;49533;-34.520;150.798;2023-12-14T01:34:48;2.47;;;1.63;;
63398;SDS011;49533;-34.520;150.798;2023-12-14T01:37:16;1.95;;;1.55;;
63398;SDS011;49533;-34.520;150.798;2023-12-14T01:39:43;2.72;;;1.70;;
63398;SDS011;49533;-34.520;150.798;2023-12-14T01:42:10;3.65;;;1.90;;
63398;SDS011;49533;-34.520;150.798;2023-12-14T01:44:37;4.13;;;1.95;;
63398;SDS011;49533;-34.520;150.798;2023-12-14T01:47:05;2.13;;;1.80;;
63398;SDS011;49533;-34.520;150.798;2023-12-14T01:49:32;2.08;;;1.52;;
63398;SDS011;49533;-34.520;150.798;2023-12-14T01:51:59;3.85;;;1.88;;
63398;SDS011;49533;-34.520;150.798;2023-12-14T01:54:26;2.90;;;1.42;;
63398;SDS011;49533;-34.520;150.798;2023-12-14T01:56:53;2.42;;;1.48;;
63398;SDS011;49533;-34.520;150.798;2023-12-14T01:59:21;4.00;;;1.52;;
63398;SDS011;49533;-34.520;150.798;2023-12-14T02:01:52;2.17;;;1.40;;
63398;SDS011;49533;-34.520;150.798;2023-12-14T02:04:23;2.03;;;1.20;;
63398;SDS011;49533;-34.520;150.798;2023-12-14T02:06:51;1.45;;;1.13;;
63398;SDS011;49533;-34.520;150.798;2023-12-14T02:09:18;2.97;;;1.40;;
63398;SDS011;49533;-34.520;150.798;2023-12-14T02:11:45;1.60;;;1.27;;
63398;SDS011;49533;-34.520;150.798;2023-12-14T02:14:12;1.95;;;0.95;;
63398;SDS011;49533;-34.520;150.798;2023-12-14T02:16:40;2.22;;;1.20;;
63398;SDS011;49533;-34.520;150.798;2023-12-14T02:19:07;2.17;;;1.13;;
63398;SDS011;49533;-34.520;150.798;2023-12-14T02:21:34;1.67;;;0.82;;
63398;SDS011;49533;-34.520;150.798;2023-12-14T02:24:01;1.50;;;0.77;;
63398;SDS011;49533;-34.520;150.798;2023-12-14T02:26:29;1.95;;;1.00;;
63398;SDS011;49533;-34.520;150.798;2023-12-14T02:28:56;1.48;;;1.00;;
63398;SDS011;49533;-34.520;150.798;2023-12-14T02:31:23;1.73;;;1.10;;
63398;SDS011;49533;-34.520;150.798;2023-12-14T02:33:51;2.45;;;1.08;;
63398;SDS011;49533;-34.520;150.798;2023-12-14T02:36:18;1.20;;;1.00;;
63398;SDS011;49533;-34.520;150.798;2023-12-14T02:38:45;2.72;;;1.27;;
63398;SDS011;49533;-34.520;150.798;2023-12-14T02:41:13;1.90;;;1.10;;
63398;SDS011;49533;-34.520;150.798;2023-12-14T02:43:40;1.52;;;0.82;;
63398;SDS011;49533;-34.520;150.798;2023-12-14T02:46:08;3.42;;;0.80;;
63398;SDS011;49533;-34.520;150.798;2023-12-14T02:48:37;1.85;;;0.93;;
63398;SDS011;49533;-34.520;150.798;2023-12-14T02:51:07;1.75;;;1.00;;
63398;SDS011;49533;-34.520;150.798;2023-12-14T02:53:38;1.35;;;0.73;;
63398;SDS011;49533;-34.520;150.798;2023-12-14T02:56:05;2.35;;;1.23;;
63398;SDS011;49533;-34.520;150.798;2023-12-14T02:58:33;1.52;;;1.08;;
63398;SDS011;49533;-34.520;150.798;2023-12-14T03:01:00;3.42;;;1.13;;
63398;SDS011;49533;-34.520;150.798;2023-12-14T03:03:27;5.40;;;1.40;;
63398;SDS011;49533;-34.520;150.798;2023-12-14T03:05:54;2.55;;;1.15;;
63398;SDS011;49533;-34.520;150.798;2023-12-14T03:08:21;2.70;;;1.30;;
63398;SDS011;49533;-34.520;150.798;2023-12-14T03:10:48;2.05;;;1.13;;
63398;SDS011;49533;-34.520;150.798;2023-12-14T03:13:15;1.52;;;1.00;;
63398;SDS011;49533;-34.520;150.798;2023-12-14T03:15:42;1.58;;;0.80;;
63398;SDS011;49533;-34.520;150.798;2023-12-14T03:18:10;2.75;;;1.20;;
63398;SDS011;49533;-34.520;150.798;2023-12-14T03:20:39;2.90;;;1.10;;
63398;SDS011;49533;-34.520;150.798;2023-12-14T03:23:06;3.45;;;0.98;;
63398;SDS011;49533;-34.520;150.798;2023-12-14T03:25:33;2.30;;;0.90;;
63398;SDS011;49533;-34.520;150.798;2023-12-14T03:28:00;2.42;;;0.80;;
63398;SDS011;49533;-34.520;150.798;2023-12-14T03:30:27;3.75;;;1.00;;
63398;SDS011;49533;-34.520;150.798;2023-12-14T03:32:54;4.38;;;1.42;;
63398;SDS011;49533;-34.520;150.798;2023-12-14T03:35:21;20.90;;;1.52;;
63398;SDS011;49533;-34.520;150.798;2023-12-14T03:37:48;2.47;;;0.90;;
63398;SDS011;49533;-34.520;150.798;2023-12-14T03:40:15;1.20;;;0.90;;
63398;SDS011;49533;-34.520;150.798;2023-12-14T03:42:42;1.80;;;1.10;;
63398;SDS011;49533;-34.520;150.798;2023-12-14T03:45:09;2.65;;;0.88;;
63398;SDS011;49533;-34.520;150.798;2023-12-14T03:47:37;3.25;;;1.20;;
63398;SDS011;49533;-34.520;150.798;2023-12-14T03:50:04;2.80;;;1.35;;
63398;SDS011;49533;-34.520;150.798;2023-12-14T03:52:31;1.38;;;1.05;;
63398;SDS011;49533;-34.520;150.798;2023-12-14T03:54:59;1.73;;;1.00;;
63398;SDS011;49533;-34.520;150.798;2023-12-14T03:57:26;1.58;;;0.90;;
63398;SDS011;49533;-34.520;150.798;2023-12-14T03:59:53;1.00;;;0.90;;
63398;SDS011;49533;-34.520;150.798;2023-12-14T04:02:20;2.63;;;1.05;;
63398;SDS011;49533;-34.520;150.798;2023-12-14T04:04:47;2.05;;;1.38;;
63398;SDS011;49533;-34.520;150.798;2023-12-14T04:07:15;1.27;;;0.82;;
63398;SDS011;49533;-34.520;150.798;2023-12-14T04:09:43;1.83;;;0.90;;
63398;SDS011;49533;-34.520;150.798;2023-12-14T04:12:11;2.20;;;0.95;;
63398;SDS011;49533;-34.520;150.798;2023-12-14T04:14:38;5.15;;;1.23;;
63398;SDS011;49533;-34.520;150.798;2023-12-14T04:17:05;1.75;;;1.00;;
63398;SDS011;49533;-34.520;150.798;2023-12-14T04:19:32;3.40;;;1.10;;
63398;SDS011;49533;-34.520;150.798;2023-12-14T04:21:59;2.70;;;1.20;;
63398;SDS011;49533;-34.520;150.798;2023-12-14T04:24:26;4.25;;;1.15;;
63398;SDS011;49533;-34.520;150.798;2023-12-14T04:26:53;2.72;;;0.75;;
63398;SDS011;49533;-34.520;150.798;2023-12-14T04:29:20;2.05;;;0.90;;
63398;SDS011;49533;-34.520;150.798;2023-12-14T04:31:47;2.80;;;0.95;;
63398;SDS011;49533;-34.520;150.798;2023-12-14T04:34:14;2.05;;;1.13;;
63398;SDS011;49533;-34.520;150.798;2023-12-14T04:36:43;2.38;;;0.90;;
63398;SDS011;49533;-34.520;150.798;2023-12-14T04:39:14;2.25;;;1.00;;
63398;SDS011;49533;-34.520;150.798;2023-12-14T04:41:42;1.45;;;0.70;;
63398;SDS011;49533;-34.520;150.798;2023-12-14T04:44:09;1.52;;;0.80;;
63398;SDS011;49533;-34.520;150.798;2023-12-14T04:46:37;1.45;;;0.80;;
63398;SDS011;49533;-34.520;150.798;2023-12-14T04:49:04;1.25;;;0.82;;
63398;SDS011;49533;-34.520;150.798;2023-12-14T04:51:31;1.27;;;0.80;;
63398;SDS011;49533;-34.520;150.798;2023-12-14T04:53:58;0.60;;;0.60;;
63398;SDS011;49533;-34.520;150.798;2023-12-14T04:56:25;1.23;;;0.57;;
63398;SDS011;49533;-34.520;150.798;2023-12-14T04:58:52;1.25;;;0.80;;
63398;SDS011;49533;-34.520;150.798;2023-12-14T05:01:19;1.70;;;0.68;;
63398;SDS011;49533;-34.520;150.798;2023-12-14T05:03:47;1.27;;;0.88;;
63398;SDS011;49533;-34.520;150.798;2023-12-14T05:06:14;1.98;;;0.80;;
63398;SDS011;49533;-34.520;150.798;2023-12-14T05:08:41;1.85;;;0.82;;
63398;SDS011;49533;-34.520;150.798;2023-12-14T05:11:08;1.38;;;0.75;;
63398;SDS011;49533;-34.520;150.798;2023-12-14T05:13:35;1.10;;;0.65;;
63398;SDS011;49533;-34.520;150.798;2023-12-14T05:16:02;2.72;;;0.85;;
63398;SDS011;49533;-34.520;150.798;2023-12-14T05:18:29;0.75;;;0.60;;
63398;SDS011;49533;-34.520;150.798;2023-12-14T05:20:56;0.88;;;0.60;;
63398;SDS011;49533;-34.520;150.798;2023-12-14T05:23:24;3.33;;;0.90;;
63398;SDS011;49533;-34.520;150.798;2023-12-14T05:25:51;1.45;;;0.77;;
63398;SDS011;49533;-34.520;150.798;2023-12-14T05:28:18;4.10;;;1.10;;
63398;SDS011;49533;-34.520;150.798;2023-12-14T05:30:45;1.05;;;0.77;;
63398;SDS011;49533;-34.520;150.798;2023-12-14T05:33:12;1.10;;;0.73;;
63398;SDS011;49533;-34.520;150.798;2023-12-14T05:35:39;1.50;;;0.80;;
63398;SDS011;49533;-34.520;150.798;2023-12-14T05:38:06;2.83;;;1.00;;
63398;SDS011;49533;-34.520;150.798;2023-12-14T05:40:33;1.00;;;0.60;;
63398;SDS011;49533;-34.520;150.798;2023-12-14T05:43:01;1.10;;;0.77;;
63398;SDS011;49533;-34.520;150.798;2023-12-14T05:45:28;2.33;;;0.85;;
63398;SDS011;49533;-34.520;150.798;2023-12-14T05:47:56;1.73;;;0.70;;
63398;SDS011;49533;-34.520;150.798;2023-12-14T05:50:26;3.17;;;1.00;;
63398;SDS011;49533;-34.520;150.798;2023-12-14T05:52:53;0.68;;;0.55;;
63398;SDS011;49533;-34.520;150.798;2023-12-14T05:55:21;1.30;;;0.38;;
63398;SDS011;49533;-34.520;150.798;2023-12-14T05:57:48;1.77;;;0.82;;
63398;SDS011;49533;-34.520;150.798;2023-12-14T06:00:17;2.63;;;0.60;;
63398;SDS011;49533;-34.520;150.798;2023-12-14T06:02:45;0.75;;;0.50;;
63398;SDS011;49533;-34.520;150.798;2023-12-14T06:05:12;0.75;;;0.50;;
63398;SDS011;49533;-34.520;150.798;2023-12-14T06:07:39;0.90;;;0.50;;
63398;SDS011;49533;-34.520;150.798;2023-12-14T06:10:06;0.75;;;0.50;;
63398;SDS011;49533;-34.520;150.798;2023-12-14T06:12:34;1.65;;;0.57;;
63398;SDS011;49533;-34.520;150.798;2023-12-14T06:15:01;1.15;;;0.57;;
63398;SDS011;49533;-34.520;150.798;2023-12-14T06:17:28;1.95;;;0.75;;
63398;SDS011;49533;-34.520;150.798;2023-12-14T06:19:57;0.57;;;0.50;;
63398;SDS011;49533;-34.520;150.798;2023-12-14T06:22:24;0.63;;;0.38;;
63398;SDS011;49533;-34.520;150.798;2023-12-14T06:24:51;0.85;;;0.52;;
63398;SDS011;49533;-34.520;150.798;2023-12-14T06:27:19;0.43;;;0.30;;
63398;SDS011;49533;-34.520;150.798;2023-12-14T06:29:48;0.40;;;0.40;;
63398;SDS011;49533;-34.520;150.798;2023-12-14T06:32:15;1.00;;;0.40;;
63398;SDS011;49533;-34.520;150.798;2023-12-14T06:34:42;0.40;;;0.40;;
63398;SDS011;49533;-34.520;150.798;2023-12-14T06:37:09;1.45;;;0.43;;
63398;SDS011;49533;-34.520;150.798;2023-12-14T06:39:36;0.45;;;0.45;;
63398;SDS011;49533;-34.520;150.798;2023-12-14T06:42:04;2.50;;;0.73;;
63398;SDS011;49533;-34.520;150.798;2023-12-14T06:44:31;0.95;;;0.40;;
63398;SDS011;49533;-34.520;150.798;2023-12-14T06:46:58;0.65;;;0.38;;
63398;SDS011;49533;-34.520;150.798;2023-12-14T06:49:25;0.65;;;0.40;;
63398;SDS011;49533;-34.520;150.798;2023-12-14T06:51:53;2.17;;;0.60;;
63398;SDS011;49533;-34.520;150.798;2023-12-14T06:54:20;2.10;;;0.73;;
63398;SDS011;49533;-34.520;150.798;2023-12-14T06:56:47;4.10;;;1.00;;
63398;SDS011;49533;-34.520;150.798;2023-12-14T06:59:14;1.15;;;0.60;;
63398;SDS011;49533;-34.520;150.798;2023-12-14T07:01:41;1.13;;;0.35;;
63398;SDS011;49533;-34.520;150.798;2023-12-14T07:04:08;2.30;;;0.40;;
63398;SDS011;49533;-34.520;150.798;2023-12-14T07:06:35;0.73;;;0.45;;
63398;SDS011;49533;-34.520;150.798;2023-12-14T07:09:02;1.25;;;0.68;;
63398;SDS011;49533;-34.520;150.798;2023-12-14T07:11:30;2.75;;;0.68;;
63398;SDS011;49533;-34.520;150.798;2023-12-14T07:13:57;2.60;;;0.82;;
63398;SDS011;49533;-34.520;150.798;2023-12-14T07:16:25;0.90;;;0.50;;
63398;SDS011;49533;-34.520;150.798;2023-12-14T07:18:52;1.30;;;0.40;;
63398;SDS011;49533;-34.520;150.798;2023-12-14T07:21:19;0.98;;;0.65;;
63398;SDS011;49533;-34.520;150.798;2023-12-14T07:23:47;1.85;;;0.30;;
63398;SDS011;49533;-34.520;150.798;2023-12-14T07:26:14;0.32;;;0.30;;
63398;SDS011;49533;-34.520;150.798;2023-12-14T07:28:41;0.40;;;0.38;;
63398;SDS011;49533;-34.520;150.798;2023-12-14T07:31:09;1.08;;;0.30;;
63398;SDS011;49533;-34.520;150.798;2023-12-14T07:33:36;1.80;;;0.30;;
63398;SDS011;49533;-34.520;150.798;2023-12-14T07:36:03;0.75;;;0.28;;
63398;SDS011;49533;-34.520;150.798;2023-12-14T07:38:31;1.33;;;0.40;;
63398;SDS011;49533;-34.520;150.798;2023-12-14T07:41:04;0.55;;;0.45;;
63398;SDS011;49533;-34.520;150.798;2023-12-14T07:43:32;0.30;;;0.20;;
63398;SDS011;49533;-34.520;150.798;2023-12-14T07:45:59;2.45;;;0.50;;
63398;SDS011;49533;-34.520;150.798;2023-12-14T07:48:26;0.22;;;0.17;;
63398;SDS011;49533;-34.520;150.798;2023-12-14T07:50:54;0.52;;;0.20;;
63398;SDS011;49533;-34.520;150.798;2023-12-14T07:53:21;1.55;;;0.32;;
63398;SDS011;49533;-34.520;150.798;2023-12-14T07:55:48;1.42;;;0.20;;
63398;SDS011;49533;-34.520;150.798;2023-12-14T07:58:15;0.85;;;0.30;;
63398;SDS011;49533;-34.520;150.798;2023-12-14T08:00:42;0.55;;;0.30;;
63398;SDS011;49533;-34.520;150.798;2023-12-14T08:03:09;0.52;;;0.20;;
63398;SDS011;49533;-34.520;150.798;2023-12-14T08:05:36;0.77;;;0.28;;
63398;SDS011;49533;-34.520;150.798;2023-12-14T08:08:03;0.52;;;0.20;;
63398;SDS011;49533;-34.520;150.798;2023-12-14T08:10:31;1.88;;;0.57;;
63398;SDS011;49533;-34.520;150.798;2023-12-14T08:12:58;0.60;;;0.35;;
63398;SDS011;49533;-34.520;150.798;2023-12-14T08:15:25;0.85;;;0.30;;
63398;SDS011;49533;-34.520;150.798;2023-12-14T08:17:52;0.20;;;0.20;;
63398;SDS011;49533;-34.520;150.798;2023-12-14T08:20:20;0.55;;;0.28;;
63398;SDS011;49533;-34.520;150.798;2023-12-14T08:22:47;1.00;;;0.30;;
63398;SDS011;49533;-34.520;150.798;2023-12-14T08:25:14;2.30;;;0.50;;
63398;SDS011;49533;-34.520;150.798;2023-12-14T08:27:42;0.90;;;0.40;;
63398;SDS011;49533;-34.520;150.798;2023-12-14T08:30:12;1.13;;;0.40;;
63398;SDS011;49533;-34.520;150.798;2023-12-14T08:32:40;0.65;;;0.30;;
63398;SDS011;49533;-34.520;150.798;2023-12-14T08:35:07;0.90;;;0.25;;
63398;SDS011;49533;-34.520;150.798;2023-12-14T08:37:35;0.70;;;0.40;;
63398;SDS011;49533;-34.520;150.798;2023-12-14T08:40:02;1.10;;;0.40;;
63398;SDS011;49533;-34.520;150.798;2023-12-14T08:42:31;0.45;;;0.30;;
63398;SDS011;49533;-34.520;150.798;2023-12-14T08:44:58;1.00;;;0.52;;
63398;SDS011;49533;-34.520;150.798;2023-12-14T08:47:25;0.50;;;0.10;;
63398;SDS011;49533;-34.520;150.798;2023-12-14T08:49:52;0.98;;;0.30;;
63398;SDS011;49533;-34.520;150.798;2023-12-14T08:52:19;0.10;;;0.10;;
63398;SDS011;49533;-34.520;150.798;2023-12-14T08:54:46;1.80;;;0.38;;
63398;SDS011;49533;-34.520;150.798;2023-12-14T08:57:13;1.17;;;0.68;;
63398;SDS011;49533;-34.520;150.798;2023-12-14T08:59:40;2.05;;;0.77;;
63398;SDS011;49533;-34.520;150.798;2023-12-14T09:02:07;2.25;;;0.85;;
63398;SDS011;49533;-34.520;150.798;2023-12-14T09:04:34;2.08;;;0.90;;
63398;SDS011;49533;-34.520;150.798;2023-12-14T09:07:02;2.40;;;1.00;;
63398;SDS011;49533;-34.520;150.798;2023-12-14T09:09:29;4.65;;;1.63;;
63398;SDS011;49533;-34.520;150.798;2023-12-14T09:11:58;3.88;;;1.85;;
63398;SDS011;49533;-34.520;150.798;2023-12-14T09:14:25;4.50;;;1.65;;
63398;SDS011;49533;-34.520;150.798;2023-12-14T09:16:52;6.20;;;2.30;;
63398;SDS011;49533;-34.520;150.798;2023-12-14T09:19:19;4.18;;;2.10;;
63398;SDS011;49533;-34.520;150.798;2023-12-14T09:21:46;6.45;;;2.75;;
63398;SDS011;49533;-34.520;150.798;2023-12-14T09:24:13;9.85;;;2.78;;
63398;SDS011;49533;-34.520;150.798;2023-12-14T09:26:40;7.65;;;2.72;;
63398;SDS011;49533;-34.520;150.798;2023-12-14T09:29:07;6.10;;;2.60;;
63398;SDS011;49533;-34.520;150.798;2023-12-14T09:31:35;8.05;;;3.13;;
63398;SDS011;49533;-34.520;150.798;2023-12-14T09:34:02;16.55;;;3.20;;
63398;SDS011;49533;-34.520;150.798;2023-12-14T09:36:30;8.18;;;2.63;;
63398;SDS011;49533;-34.520;150.798;2023-12-14T09:38:57;11.57;;;3.70;;
63398;SDS011;49533;-34.520;150.798;2023-12-14T09:41:24;8.35;;;2.75;;
63398;SDS011;49533;-34.520;150.798;2023-12-14T09:43:51;10.65;;;3.22;;
63398;SDS011;49533;-34.520;150.798;2023-12-14T09:46:18;9.35;;;3.10;;
63398;SDS011;49533;-34.520;150.798;2023-12-14T09:48:47;8.35;;;2.63;;
63398;SDS011;49533;-34.520;150.798;2023-12-14T09:51:17;8.98;;;3.15;;
63398;SDS011;49533;-34.520;150.798;2023-12-14T09:53:44;7.22;;;3.20;;
63398;SDS011;49533;-34.520;150.798;2023-12-14T09:56:11;6.85;;;2.90;;
63398;SDS011;49533;-34.520;150.798;2023-12-14T09:58:38;8.23;;;3.08;;
63398;SDS011;49533;-34.520;150.798;2023-12-14T10:01:24;10.43;;;2.83;;
63398;SDS011;49533;-34.520;150.798;2023-12-14T10:04:09;8.27;;;3.20;;
63398;SDS011;49533;-34.520;150.798;2023-12-14T10:06:44;8.85;;;3.33;;
63398;SDS011;49533;-34.520;150.798;2023-12-14T10:09:12;9.35;;;3.10;;
63398;SDS011;49533;-34.520;150.798;2023-12-14T10:11:42;8.20;;;3.00;;
63398;SDS011;49533;-34.520;150.798;2023-12-14T10:16:53;7.55;;;3.20;;
63398;SDS011;49533;-34.520;150.798;2023-12-14T10:19:21;6.65;;;2.80;;
63398;SDS011;49533;-34.520;150.798;2023-12-14T10:21:48;6.80;;;2.42;;
63398;SDS011;49533;-34.520;150.798;2023-12-14T10:24:16;7.00;;;2.75;;
63398;SDS011;49533;-34.520;150.798;2023-12-14T10:26:45;8.68;;;3.33;;
63398;SDS011;49533;-34.520;150.798;2023-12-14T10:29:13;8.82;;;2.92;;
63398;SDS011;49533;-34.520;150.798;2023-12-14T10:31:42;8.75;;;3.30;;
63398;SDS011;49533;-34.520;150.798;2023-12-14T10:34:09;6.28;;;2.60;;
63398;SDS011;49533;-34.520;150.798;2023-12-14T10:36:38;8.35;;;3.15;;
63398;SDS011;49533;-34.520;150.798;2023-12-14T10:39:06;10.90;;;3.30;;
63398;SDS011;49533;-34.520;150.798;2023-12-14T10:41:36;12.82;;;3.38;;
63398;SDS011;49533;-34.520;150.798;2023-12-14T10:44:05;7.95;;;3.10;;
63398;SDS011;49533;-34.520;150.798;2023-12-14T10:46:32;9.57;;;3.33;;
63398;SDS011;49533;-34.520;150.798;2023-12-14T10:49:00;8.90;;;2.88;;
63398;SDS011;49533;-34.520;150.798;2023-12-14T10:51:28;7.93;;;3.35;;
63398;SDS011;49533;-34.520;150.798;2023-12-14T10:53:55;8.55;;;2.65;;
63398;SDS011;49533;-34.520;150.798;2023-12-14T10:56:23;6.75;;;3.20;;
63398;SDS011;49533;-34.520;150.798;2023-12-14T10:58:55;10.18;;;3.42;;
63398;SDS011;49533;-34.520;150.798;2023-12-14T11:01:24;7.20;;;3.05;;
63398;SDS011;49533;-34.520;150.798;2023-12-14T11:03:55;7.82;;;3.10;;
63398;SDS011;49533;-34.520;150.798;2023-12-14T11:09:01;8.88;;;2.88;;
63398;SDS011;49533;-34.520;150.798;2023-12-14T11:14:28;6.80;;;2.47;;
63398;SDS011;49533;-34.520;150.798;2023-12-14T11:17:08;8.63;;;3.08;;
63398;SDS011;49533;-34.520;150.798;2023-12-14T11:19:38;8.77;;;2.90;;
63398;SDS011;49533;-34.520;150.798;2023-12-14T11:24:47;6.70;;;2.72;;
63398;SDS011;49533;-34.520;150.798;2023-12-14T11:27:25;8.27;;;3.22;;
63398;SDS011;49533;-34.520;150.798;2023-12-14T11:29:54;11.00;;;3.05;;
63398;SDS011;49533;-34.520;150.798;2023-12-14T11:32:24;8.50;;;2.80;;
63398;SDS011;49533;-34.520;150.798;2023-12-14T11:34:52;7.53;;;3.03;;
63398;SDS011;49533;-34.520;150.798;2023-12-14T11:37:21;9.73;;;2.90;;
63398;SDS011;49533;-34.520;150.798;2023-12-14T11:39:49;9.52;;;2.67;;
63398;SDS011;49533;-34.520;150.798;2023-12-14T11:42:17;9.02;;;3.53;;
63398;SDS011;49533;-34.520;150.798;2023-12-14T11:44:45;6.43;;;3.13;;
63398;SDS011;49533;-34.520;150.798;2023-12-14T11:47:12;7.63;;;2.55;;
63398;SDS011;49533;-34.520;150.798;2023-12-14T11:49:39;7.25;;;2.78;;
63398;SDS011;49533;-34.520;150.798;2023-12-14T11:52:07;6.57;;;3.13;;
63398;SDS011;49533;-34.520;150.798;2023-12-14T11:54:34;8.68;;;2.70;;
63398;SDS011;49533;-34.520;150.798;2023-12-14T11:57:03;9.85;;;3.05;;
63398;SDS011;49533;-34.520;150.798;2023-12-14T11:59:31;8.55;;;2.90;;
63398;SDS011;49533;-34.520;150.798;2023-12-14T12:01:58;9.45;;;3.13;;
63398;SDS011;49533;-34.520;150.798;2023-12-14T12:04:27;7.22;;;2.85;;
63398;SDS011;49533;-34.520;150.798;2023-12-14T12:07:01;9.27;;;2.80;;
63398;SDS011;49533;-34.520;150.798;2023-12-14T12:09:34;10.10;;;2.92;;
63398;SDS011;49533;-34.520;150.798;2023-12-14T12:12:07;7.53;;;2.60;;
63398;SDS011;49533;-34.520;150.798;2023-12-14T12:14:36;8.75;;;3.38;;
63398;SDS011;49533;-34.520;150.798;2023-12-14T12:17:04;7.63;;;2.70;;
63398;SDS011;49533;-34.520;150.798;2023-12-14T12:19:36;9.57;;;2.90;;
63398;SDS011;49533;-34.520;150.798;2023-12-14T12:22:03;8.73;;;2.80;;
63398;SDS011;49533;-34.520;150.798;2023-12-14T12:24:31;6.68;;;2.70;;
63398;SDS011;49533;-34.520;150.798;2023-12-14T12:26:58;5.60;;;2.67;;
63398;SDS011;49533;-34.520;150.798;2023-12-14T12:29:25;8.50;;;2.50;;
63398;SDS011;49533;-34.520;150.798;2023-12-14T12:31:52;9.05;;;2.92;;
63398;SDS011;49533;-34.520;150.798;2023-12-14T12:34:19;7.68;;;2.70;;
63398;SDS011;49533;-34.520;150.798;2023-12-14T12:36:46;9.68;;;3.05;;
63398;SDS011;49533;-34.520;150.798;2023-12-14T12:39:13;8.95;;;3.60;;
63398;SDS011;49533;-34.520;150.798;2023-12-14T12:41:41;7.85;;;2.80;;
63398;SDS011;49533;-34.520;150.798;2023-12-14T12:44:08;9.52;;;3.08;;
63398;SDS011;49533;-34.520;150.798;2023-12-14T12:46:35;8.60;;;2.92;;
63398;SDS011;49533;-34.520;150.798;2023-12-14T12:49:03;7.80;;;2.80;;
63398;SDS011;49533;-34.520;150.798;2023-12-14T12:51:31;8.70;;;2.83;;
63398;SDS011;49533;-34.520;150.798;2023-12-14T12:53:59;11.82;;;3.47;;
63398;SDS011;49533;-34.520;150.798;2023-12-14T12:56:26;7.30;;;2.65;;
63398;SDS011;49533;-34.520;150.798;2023-12-14T12:58:53;8.52;;;3.00;;
63398;SDS011;49533;-34.520;150.798;2023-12-14T13:01:21;7.68;;;2.92;;
63398;SDS011;49533;-34.520;150.798;2023-12-14T13:03:57;8.10;;;2.88;;
63398;SDS011;49533;-34.520;150.798;2023-12-14T13:06:26;9.70;;;3.30;;
63398;SDS011;49533;-34.520;150.798;2023-12-14T13:08:53;7.82;;;2.70;;
63398;SDS011;49533;-34.520;150.798;2023-12-14T13:11:20;7.45;;;2.70;;
63398;SDS011;49533;-34.520;150.798;2023-12-14T13:13:48;6.88;;;3.05;;
63398;SDS011;49533;-34.520;150.798;2023-12-14T13:16:15;9.13;;;3.00;;
63398;SDS011;49533;-34.520;150.798;2023-12-14T13:18:43;5.78;;;2.28;;
63398;SDS011;49533;-34.520;150.798;2023-12-14T13:21:11;8.55;;;3.10;;
63398;SDS011;49533;-34.520;150.798;2023-12-14T13:23:40;6.88;;;2.88;;
63398;SDS011;49533;-34.520;150.798;2023-12-14T13:26:07;10.32;;;2.72;;
63398;SDS011;49533;-34.520;150.798;2023-12-14T13:28:34;8.70;;;3.08;;
63398;SDS011;49533;-34.520;150.798;2023-12-14T13:31:01;9.73;;;2.92;;
63398;SDS011;49533;-34.520;150.798;2023-12-14T13:33:29;9.68;;;3.20;;
63398;SDS011;49533;-34.520;150.798;2023-12-14T13:35:56;7.80;;;2.85;;
63398;SDS011;49533;-34.520;150.798;2023-12-14T13:38:24;9.95;;;3.20;;
63398;SDS011;49533;-34.520;150.798;2023-12-14T13:40:51;8.43;;;2.70;;
63398;SDS011;49533;-34.520;150.798;2023-12-14T13:43:18;9.60;;;2.72;;
63398;SDS011;49533;-34.520;150.798;2023-12-14T13:45:45;5.75;;;2.50;;
63398;SDS011;49533;-34.520;150.798;2023-12-14T13:48:13;7.57;;;3.10;;
63398;SDS011;49533;-34.520;150.798;2023-12-14T13:50:40;7.97;;;3.10;;
63398;SDS011;49533;-34.520;150.798;2023-12-14T13:53:07;7.28;;;2.72;;
63398;SDS011;49533;-34.520;150.798;2023-12-14T13:55:34;8.63;;;2.78;;
63398;SDS011;49533;-34.520;150.798;2023-12-14T13:58:01;8.93;;;3.30;;
63398;SDS011;49533;-34.520;150.798;2023-12-14T14:00:28;8.07;;;2.70;;
63398;SDS011;49533;-34.520;150.798;2023-12-14T14:02:56;9.27;;;3.22;;
63398;SDS011;49533;-34.520;150.798;2023-12-14T14:05:23;7.05;;;3.03;;
63398;SDS011;49533;-34.520;150.798;2023-12-14T14:07:50;7.43;;;2.65;;
63398;SDS011;49533;-34.520;150.798;2023-12-14T14:10:18;10.23;;;2.67;;
63398;SDS011;49533;-34.520;150.798;2023-12-14T14:12:45;11.10;;;3.60;;
63398;SDS011;49533;-34.520;150.798;2023-12-14T14:15:12;8.43;;;2.83;;
63398;SDS011;49533;-34.520;150.798;2023-12-14T14:17:40;5.93;;;2.65;;
63398;SDS011;49533;-34.520;150.798;2023-12-14T14:20:07;6.75;;;2.75;;
63398;SDS011;49533;-34.520;150.798;2023-12-14T14:22:38;8.48;;;2.65;;